sensor_id;sensor_type;location;lat;lon;timestamp;temperature;humidity
33655;DHT22;19997;51.274;22.506;2023-03-01T00:00:41;-1.10;85.00
33655;DHT22;19997;51.274;22.506;2023-03-01T00:03:12;-1.20;85.10
33655;DHT22;19997;51.274;22.506;2023-03-01T00:05:44;-1.20;85.20
33655;DHT22;19997;51.274;22.506;2023-03-01T00:08:13;-1.20;85.20
33655;DHT22;19997;51.274;22.506;2023-03-01T00:10:40;-1.20;85.20
33655;DHT22;19997;51.274;22.506;2023-03-01T00:13:07;-1.20;85.20
33655;DHT22;19997;51.274;22.506;2023-03-01T00:15:38;-1.20;85.40
33655;DHT22;19997;51.274;22.506;2023-03-01T00:18:05;-1.20;85.50
33655;DHT22;19997;51.274;22.506;2023-03-01T00:20:32;-1.20;85.70
33655;DHT22;19997;51.274;22.506;2023-03-01T00:22:59;-1.20;85.60
33655;DHT22;19997;51.274;22.506;2023-03-01T00:25:28;-1.20;85.50
33655;DHT22;19997;51.274;22.506;2023-03-01T00:27:55;-1.20;85.50
33655;DHT22;19997;51.274;22.506;2023-03-01T00:30:22;-1.20;85.80
33655;DHT22;19997;51.274;22.506;2023-03-01T00:32:49;-1.30;85.80
33655;DHT22;19997;51.274;22.506;2023-03-01T00:35:19;-1.30;85.80
33655;DHT22;19997;51.274;22.506;2023-03-01T00:37:48;-1.30;86.00
33655;DHT22;19997;51.274;22.506;2023-03-01T00:40:23;-1.30;86.10
33655;DHT22;19997;51.274;22.506;2023-03-01T00:42:51;-1.30;86.30
33655;DHT22;19997;51.274;22.506;2023-03-01T00:45:18;-1.30;86.50
33655;DHT22;19997;51.274;22.506;2023-03-01T00:47:46;-1.30;86.60
33655;DHT22;19997;51.274;22.506;2023-03-01T00:50:14;-1.30;86.80
33655;DHT22;19997;51.274;22.506;2023-03-01T00:52:41;-1.30;86.90
33655;DHT22;19997;51.274;22.506;2023-03-01T00:55:09;-1.30;86.80
33655;DHT22;19997;51.274;22.506;2023-03-01T00:57:36;-1.30;86.70
33655;DHT22;19997;51.274;22.506;2023-03-01T01:00:06;-1.30;86.70
33655;DHT22;19997;51.274;22.506;2023-03-01T01:02:34;-1.30;86.80
33655;DHT22;19997;51.274;22.506;2023-03-01T01:05:01;-1.30;86.80
33655;DHT22;19997;51.274;22.506;2023-03-01T01:07:28;-1.30;87.00
33655;DHT22;19997;51.274;22.506;2023-03-01T01:09:55;-1.30;87.10
33655;DHT22;19997;51.274;22.506;2023-03-01T01:12:22;-1.30;87.20
33655;DHT22;19997;51.274;22.506;2023-03-01T01:14:49;-1.40;87.40
33655;DHT22;19997;51.274;22.506;2023-03-01T01:17:18;-1.40;87.50
33655;DHT22;19997;51.274;22.506;2023-03-01T01:19:45;-1.40;87.70
33655;DHT22;19997;51.274;22.506;2023-03-01T01:22:12;-1.40;87.90
33655;DHT22;19997;51.274;22.506;2023-03-01T01:24:39;-1.40;87.80
33655;DHT22;19997;51.274;22.506;2023-03-01T01:27:06;-1.40;87.80
33655;DHT22;19997;51.274;22.506;2023-03-01T01:29:33;-1.30;87.80
33655;DHT22;19997;51.274;22.506;2023-03-01T01:32:00;-1.30;87.70
33655;DHT22;19997;51.274;22.506;2023-03-01T01:34:28;-1.30;87.60
33655;DHT22;19997;51.274;22.506;2023-03-01T01:36:55;-1.30;87.50
33655;DHT22;19997;51.274;22.506;2023-03-01T01:39:23;-1.30;87.40
33655;DHT22;19997;51.274;22.506;2023-03-01T01:41:50;-1.30;87.40
33655;DHT22;19997;51.274;22.506;2023-03-01T01:44:19;-1.40;87.30
33655;DHT22;19997;51.274;22.506;2023-03-01T01:46:50;-1.30;87.40
33655;DHT22;19997;51.274;22.506;2023-03-01T01:49:27;-1.40;87.30
33655;DHT22;19997;51.274;22.506;2023-03-01T01:52:04;-1.40;87.20
33655;DHT22;19997;51.274;22.506;2023-03-01T01:54:40;-1.40;87.90
33655;DHT22;19997;51.274;22.506;2023-03-01T01:57:11;-1.40;87.10
33655;DHT22;19997;51.274;22.506;2023-03-01T01:59:42;-1.40;87.10
33655;DHT22;19997;51.274;22.506;2023-03-01T02:02:12;-1.40;87.10
33655;DHT22;19997;51.274;22.506;2023-03-01T02:04:40;-1.40;87.10
33655;DHT22;19997;51.274;22.506;2023-03-01T02:07:13;-1.50;87.10
33655;DHT22;19997;51.274;22.506;2023-03-01T02:09:44;-1.60;87.00
33655;DHT22;19997;51.274;22.506;2023-03-01T02:12:13;-1.60;87.40
33655;DHT22;19997;51.274;22.506;2023-03-01T02:14:40;-1.60;87.60
33655;DHT22;19997;51.274;22.506;2023-03-01T02:17:07;-1.60;87.70
33655;DHT22;19997;51.274;22.506;2023-03-01T02:19:44;-1.70;87.70
33655;DHT22;19997;51.274;22.506;2023-03-01T02:22:22;-1.70;88.00
33655;DHT22;19997;51.274;22.506;2023-03-01T02:24:59;-1.70;87.90
33655;DHT22;19997;51.274;22.506;2023-03-01T02:27:33;-1.70;88.00
33655;DHT22;19997;51.274;22.506;2023-03-01T02:30:06;-1.80;88.20
33655;DHT22;19997;51.274;22.506;2023-03-01T02:32:34;-1.80;88.30
33655;DHT22;19997;51.274;22.506;2023-03-01T02:35:01;-1.80;88.50
33655;DHT22;19997;51.274;22.506;2023-03-01T02:37:35;-1.80;88.70
33655;DHT22;19997;51.274;22.506;2023-03-01T02:40:05;-1.80;88.70
33655;DHT22;19997;51.274;22.506;2023-03-01T02:42:42;-1.80;89.00
33655;DHT22;19997;51.274;22.506;2023-03-01T02:45:14;-1.80;89.20
33655;DHT22;19997;51.274;22.506;2023-03-01T02:47:41;-1.80;89.30
33655;DHT22;19997;51.274;22.506;2023-03-01T02:50:22;-1.80;89.30
33655;DHT22;19997;51.274;22.506;2023-03-01T02:52:56;-1.80;89.60
33655;DHT22;19997;51.274;22.506;2023-03-01T02:55:26;-1.80;89.90
33655;DHT22;19997;51.274;22.506;2023-03-01T02:57:54;-1.80;90.00
33655;DHT22;19997;51.274;22.506;2023-03-01T03:00:27;-1.80;89.90
33655;DHT22;19997;51.274;22.506;2023-03-01T03:02:55;-1.80;90.00
33655;DHT22;19997;51.274;22.506;2023-03-01T03:05:25;-1.80;90.10
33655;DHT22;19997;51.274;22.506;2023-03-01T03:07:57;-1.80;90.10
33655;DHT22;19997;51.274;22.506;2023-03-01T03:10:28;-1.80;90.20
33655;DHT22;19997;51.274;22.506;2023-03-01T03:12:57;-1.80;90.30
33655;DHT22;19997;51.274;22.506;2023-03-01T03:15:26;-1.70;90.30
33655;DHT22;19997;51.274;22.506;2023-03-01T03:17:56;-1.70;90.30
33655;DHT22;19997;51.274;22.506;2023-03-01T03:20:24;-1.70;90.30
33655;DHT22;19997;51.274;22.506;2023-03-01T03:22:53;-1.70;90.40
33655;DHT22;19997;51.274;22.506;2023-03-01T03:25:22;-1.70;90.40
33655;DHT22;19997;51.274;22.506;2023-03-01T03:27:51;-1.70;90.40
33655;DHT22;19997;51.274;22.506;2023-03-01T03:30:24;-1.70;90.50
33655;DHT22;19997;51.274;22.506;2023-03-01T03:32:53;-1.70;90.60
33655;DHT22;19997;51.274;22.506;2023-03-01T03:35:23;-1.70;90.90
33655;DHT22;19997;51.274;22.506;2023-03-01T03:37:50;-1.70;90.90
33655;DHT22;19997;51.274;22.506;2023-03-01T03:40:33;-1.70;90.90
33655;DHT22;19997;51.274;22.506;2023-03-01T03:43:01;-1.70;90.90
33655;DHT22;19997;51.274;22.506;2023-03-01T03:45:28;-1.70;91.00
33655;DHT22;19997;51.274;22.506;2023-03-01T03:47:56;-1.70;91.00
33655;DHT22;19997;51.274;22.506;2023-03-01T03:50:23;-1.70;91.20
33655;DHT22;19997;51.274;22.506;2023-03-01T03:52:50;-1.70;91.20
33655;DHT22;19997;51.274;22.506;2023-03-01T03:55:17;-1.70;91.20
33655;DHT22;19997;51.274;22.506;2023-03-01T03:57:46;-1.70;91.30
33655;DHT22;19997;51.274;22.506;2023-03-01T04:00:18;-1.70;91.40
33655;DHT22;19997;51.274;22.506;2023-03-01T04:02:47;-1.70;91.50
33655;DHT22;19997;51.274;22.506;2023-03-01T04:05:18;-1.70;91.70
33655;DHT22;19997;51.274;22.506;2023-03-01T04:07:45;-1.70;92.00
33655;DHT22;19997;51.274;22.506;2023-03-01T04:10:15;-1.80;92.30
33655;DHT22;19997;51.274;22.506;2023-03-01T04:12:42;-1.70;92.60
33655;DHT22;19997;51.274;22.506;2023-03-01T04:15:11;-1.70;92.90
33655;DHT22;19997;51.274;22.506;2023-03-01T04:17:42;-1.70;93.10
33655;DHT22;19997;51.274;22.506;2023-03-01T04:20:11;-1.70;93.40
33655;DHT22;19997;51.274;22.506;2023-03-01T04:22:40;-1.70;93.70
33655;DHT22;19997;51.274;22.506;2023-03-01T04:25:07;-1.70;93.90
33655;DHT22;19997;51.274;22.506;2023-03-01T04:27:40;-1.70;94.30
33655;DHT22;19997;51.274;22.506;2023-03-01T04:30:08;-1.70;94.50
33655;DHT22;19997;51.274;22.506;2023-03-01T04:32:36;-1.70;94.70
33655;DHT22;19997;51.274;22.506;2023-03-01T04:35:03;-1.70;94.80
33655;DHT22;19997;51.274;22.506;2023-03-01T04:37:31;-1.70;95.00
33655;DHT22;19997;51.274;22.506;2023-03-01T04:39:59;-1.70;95.20
33655;DHT22;19997;51.274;22.506;2023-03-01T04:42:26;-1.70;95.20
33655;DHT22;19997;51.274;22.506;2023-03-01T04:44:53;-1.60;95.40
33655;DHT22;19997;51.274;22.506;2023-03-01T04:47:20;-1.60;95.60
33655;DHT22;19997;51.274;22.506;2023-03-01T04:49:47;-1.60;95.70
33655;DHT22;19997;51.274;22.506;2023-03-01T04:52:14;-1.60;95.90
33655;DHT22;19997;51.274;22.506;2023-03-01T04:54:41;-1.60;96.10
33655;DHT22;19997;51.274;22.506;2023-03-01T04:57:10;-1.60;96.30
33655;DHT22;19997;51.274;22.506;2023-03-01T04:59:37;-1.60;96.40
33655;DHT22;19997;51.274;22.506;2023-03-01T05:02:04;-1.60;96.50
33655;DHT22;19997;51.274;22.506;2023-03-01T05:04:31;-1.50;96.60
33655;DHT22;19997;51.274;22.506;2023-03-01T05:06:58;-1.50;96.70
33655;DHT22;19997;51.274;22.506;2023-03-01T05:09:25;-1.50;96.80
33655;DHT22;19997;51.274;22.506;2023-03-01T05:11:52;-1.40;96.80
33655;DHT22;19997;51.274;22.506;2023-03-01T05:14:20;-1.40;96.70
33655;DHT22;19997;51.274;22.506;2023-03-01T05:16:48;-1.40;96.80
33655;DHT22;19997;51.274;22.506;2023-03-01T05:19:15;-1.40;96.70
33655;DHT22;19997;51.274;22.506;2023-03-01T05:21:48;-1.30;96.70
33655;DHT22;19997;51.274;22.506;2023-03-01T05:24:33;-1.20;96.70
33655;DHT22;19997;51.274;22.506;2023-03-01T05:27:01;-1.20;96.70
33655;DHT22;19997;51.274;22.506;2023-03-01T05:29:31;-1.20;96.80
33655;DHT22;19997;51.274;22.506;2023-03-01T05:32:01;-1.20;96.80
33655;DHT22;19997;51.274;22.506;2023-03-01T05:34:30;-1.20;96.80
33655;DHT22;19997;51.274;22.506;2023-03-01T05:36:58;-1.10;96.90
33655;DHT22;19997;51.274;22.506;2023-03-01T05:39:27;-1.10;96.90
33655;DHT22;19997;51.274;22.506;2023-03-01T05:41:55;-1.10;96.80
33655;DHT22;19997;51.274;22.506;2023-03-01T05:44:23;-1.00;96.90
33655;DHT22;19997;51.274;22.506;2023-03-01T05:46:52;-1.00;96.80
33655;DHT22;19997;51.274;22.506;2023-03-01T05:49:19;-0.90;96.60
33655;DHT22;19997;51.274;22.506;2023-03-01T05:51:51;-0.90;96.50
33655;DHT22;19997;51.274;22.506;2023-03-01T05:54:19;-0.90;96.30
33655;DHT22;19997;51.274;22.506;2023-03-01T05:56:46;-0.80;96.20
33655;DHT22;19997;51.274;22.506;2023-03-01T05:59:13;-0.80;96.10
33655;DHT22;19997;51.274;22.506;2023-03-01T06:01:42;-0.70;95.90
33655;DHT22;19997;51.274;22.506;2023-03-01T06:04:10;-0.80;95.70
33655;DHT22;19997;51.274;22.506;2023-03-01T06:06:37;-0.70;95.80
33655;DHT22;19997;51.274;22.506;2023-03-01T06:09:05;-0.70;95.60
33655;DHT22;19997;51.274;22.506;2023-03-01T06:11:35;-0.70;95.50
33655;DHT22;19997;51.274;22.506;2023-03-01T06:14:03;-0.60;95.40
33655;DHT22;19997;51.274;22.506;2023-03-01T06:16:30;-0.60;95.30
33655;DHT22;19997;51.274;22.506;2023-03-01T06:18:57;-0.50;95.30
33655;DHT22;19997;51.274;22.506;2023-03-01T06:21:25;-0.40;95.20
33655;DHT22;19997;51.274;22.506;2023-03-01T06:23:52;-0.40;95.00
33655;DHT22;19997;51.274;22.506;2023-03-01T06:26:19;-0.30;94.90
33655;DHT22;19997;51.274;22.506;2023-03-01T06:28:46;-0.30;94.60
33655;DHT22;19997;51.274;22.506;2023-03-01T06:31:13;-0.20;94.50
33655;DHT22;19997;51.274;22.506;2023-03-01T06:33:40;-0.20;94.30
33655;DHT22;19997;51.274;22.506;2023-03-01T06:36:08;-0.10;94.10
33655;DHT22;19997;51.274;22.506;2023-03-01T06:38:37;-0.10;94.00
33655;DHT22;19997;51.274;22.506;2023-03-01T06:41:06;-0.10;93.70
33655;DHT22;19997;51.274;22.506;2023-03-01T06:43:36;0.00;93.80
33655;DHT22;19997;51.274;22.506;2023-03-01T06:46:06;0.00;93.70
33655;DHT22;19997;51.274;22.506;2023-03-01T06:48:33;0.10;93.70
33655;DHT22;19997;51.274;22.506;2023-03-01T06:51:01;0.10;93.70
33655;DHT22;19997;51.274;22.506;2023-03-01T06:53:28;0.20;93.60
33655;DHT22;19997;51.274;22.506;2023-03-01T06:55:57;0.20;93.40
33655;DHT22;19997;51.274;22.506;2023-03-01T06:58:25;0.30;93.50
33655;DHT22;19997;51.274;22.506;2023-03-01T07:00:52;0.40;93.40
33655;DHT22;19997;51.274;22.506;2023-03-01T07:03:19;0.50;93.40
33655;DHT22;19997;51.274;22.506;2023-03-01T07:05:48;0.60;93.20
33655;DHT22;19997;51.274;22.506;2023-03-01T07:08:17;0.70;92.70
33655;DHT22;19997;51.274;22.506;2023-03-01T07:10:44;0.70;92.60
33655;DHT22;19997;51.274;22.506;2023-03-01T07:13:12;0.90;92.50
33655;DHT22;19997;51.274;22.506;2023-03-01T07:15:40;0.90;92.00
33655;DHT22;19997;51.274;22.506;2023-03-01T07:18:07;1.00;92.00
33655;DHT22;19997;51.274;22.506;2023-03-01T07:20:34;1.10;91.90
33655;DHT22;19997;51.274;22.506;2023-03-01T07:23:01;1.10;91.70
33655;DHT22;19997;51.274;22.506;2023-03-01T07:25:28;1.20;91.40
33655;DHT22;19997;51.274;22.506;2023-03-01T07:27:55;1.20;91.30
33655;DHT22;19997;51.274;22.506;2023-03-01T07:30:25;1.30;91.30
33655;DHT22;19997;51.274;22.506;2023-03-01T07:32:54;1.30;91.20
33655;DHT22;19997;51.274;22.506;2023-03-01T07:35:21;1.40;91.30
33655;DHT22;19997;51.274;22.506;2023-03-01T07:37:48;1.50;91.10
33655;DHT22;19997;51.274;22.506;2023-03-01T07:40:15;1.60;91.10
33655;DHT22;19997;51.274;22.506;2023-03-01T07:42:42;1.70;90.80
33655;DHT22;19997;51.274;22.506;2023-03-01T07:45:10;1.70;90.60
33655;DHT22;19997;51.274;22.506;2023-03-01T07:47:40;1.80;90.50
33655;DHT22;19997;51.274;22.506;2023-03-01T07:50:09;1.90;90.40
33655;DHT22;19997;51.274;22.506;2023-03-01T07:52:36;2.00;90.80
33655;DHT22;19997;51.274;22.506;2023-03-01T07:55:04;2.20;90.30
33655;DHT22;19997;51.274;22.506;2023-03-01T07:57:31;2.30;89.70
33655;DHT22;19997;51.274;22.506;2023-03-01T07:59:58;2.40;89.00
33655;DHT22;19997;51.274;22.506;2023-03-01T08:02:25;2.40;88.40
33655;DHT22;19997;51.274;22.506;2023-03-01T08:04:53;2.50;88.30
33655;DHT22;19997;51.274;22.506;2023-03-01T08:07:20;2.60;87.90
33655;DHT22;19997;51.274;22.506;2023-03-01T08:09:47;2.70;87.00
33655;DHT22;19997;51.274;22.506;2023-03-01T08:12:14;2.80;86.40
33655;DHT22;19997;51.274;22.506;2023-03-01T08:14:42;2.80;86.00
33655;DHT22;19997;51.274;22.506;2023-03-01T08:17:09;2.90;85.60
33655;DHT22;19997;51.274;22.506;2023-03-01T08:19:36;2.90;84.70
33655;DHT22;19997;51.274;22.506;2023-03-01T08:22:05;2.90;84.20
33655;DHT22;19997;51.274;22.506;2023-03-01T08:24:32;2.90;83.80
33655;DHT22;19997;51.274;22.506;2023-03-01T08:26:59;3.00;83.80
33655;DHT22;19997;51.274;22.506;2023-03-01T08:29:30;3.00;83.50
33655;DHT22;19997;51.274;22.506;2023-03-01T08:31:57;3.10;83.10
33655;DHT22;19997;51.274;22.506;2023-03-01T08:34:24;3.20;82.70
33655;DHT22;19997;51.274;22.506;2023-03-01T08:36:51;3.30;82.40
33655;DHT22;19997;51.274;22.506;2023-03-01T08:39:21;3.40;82.30
33655;DHT22;19997;51.274;22.506;2023-03-01T08:41:50;3.50;82.20
33655;DHT22;19997;51.274;22.506;2023-03-01T08:44:17;3.60;81.90
33655;DHT22;19997;51.274;22.506;2023-03-01T08:46:44;3.70;81.00
33655;DHT22;19997;51.274;22.506;2023-03-01T08:49:13;3.70;80.50
33655;DHT22;19997;51.274;22.506;2023-03-01T08:51:41;3.80;80.50
33655;DHT22;19997;51.274;22.506;2023-03-01T08:54:12;3.80;80.40
33655;DHT22;19997;51.274;22.506;2023-03-01T08:56:42;4.00;80.20
33655;DHT22;19997;51.274;22.506;2023-03-01T08:59:10;4.00;79.50
33655;DHT22;19997;51.274;22.506;2023-03-01T09:01:37;4.10;79.40
33655;DHT22;19997;51.274;22.506;2023-03-01T09:04:05;4.10;79.30
33655;DHT22;19997;51.274;22.506;2023-03-01T09:06:33;4.20;78.90
33655;DHT22;19997;51.274;22.506;2023-03-01T09:09:01;4.30;78.40
33655;DHT22;19997;51.274;22.506;2023-03-01T09:11:29;4.30;77.70
33655;DHT22;19997;51.274;22.506;2023-03-01T09:13:57;4.30;77.60
33655;DHT22;19997;51.274;22.506;2023-03-01T09:16:24;4.30;77.60
33655;DHT22;19997;51.274;22.506;2023-03-01T09:18:53;4.30;77.30
33655;DHT22;19997;51.274;22.506;2023-03-01T09:21:22;4.30;77.60
33655;DHT22;19997;51.274;22.506;2023-03-01T09:23:49;4.40;77.40
33655;DHT22;19997;51.274;22.506;2023-03-01T09:26:19;4.40;77.10
33655;DHT22;19997;51.274;22.506;2023-03-01T09:28:48;4.40;77.30
33655;DHT22;19997;51.274;22.506;2023-03-01T09:31:17;4.60;77.20
33655;DHT22;19997;51.274;22.506;2023-03-01T09:33:46;4.60;75.80
33655;DHT22;19997;51.274;22.506;2023-03-01T09:36:16;4.60;75.40
33655;DHT22;19997;51.274;22.506;2023-03-01T09:38:43;4.60;75.00
33655;DHT22;19997;51.274;22.506;2023-03-01T09:41:18;4.70;75.00
33655;DHT22;19997;51.274;22.506;2023-03-01T09:43:55;4.70;75.30
33655;DHT22;19997;51.274;22.506;2023-03-01T09:46:25;4.80;75.30
33655;DHT22;19997;51.274;22.506;2023-03-01T09:48:56;4.90;74.70
33655;DHT22;19997;51.274;22.506;2023-03-01T09:51:31;4.90;74.40
33655;DHT22;19997;51.274;22.506;2023-03-01T09:53:58;5.00;74.00
33655;DHT22;19997;51.274;22.506;2023-03-01T09:56:32;5.10;73.60
33655;DHT22;19997;51.274;22.506;2023-03-01T09:59:07;5.20;73.50
33655;DHT22;19997;51.274;22.506;2023-03-01T10:01:45;5.20;73.20
33655;DHT22;19997;51.274;22.506;2023-03-01T10:04:26;5.20;72.90
33655;DHT22;19997;51.274;22.506;2023-03-01T10:07:05;5.20;72.70
33655;DHT22;19997;51.274;22.506;2023-03-01T10:09:40;5.30;72.60
33655;DHT22;19997;51.274;22.506;2023-03-01T10:12:10;5.30;72.90
33655;DHT22;19997;51.274;22.506;2023-03-01T10:14:40;5.40;72.80
33655;DHT22;19997;51.274;22.506;2023-03-01T10:17:24;5.50;72.40
33655;DHT22;19997;51.274;22.506;2023-03-01T10:19:52;5.50;72.50
33655;DHT22;19997;51.274;22.506;2023-03-01T10:22:20;5.60;71.80
33655;DHT22;19997;51.274;22.506;2023-03-01T10:24:50;5.60;71.80
33655;DHT22;19997;51.274;22.506;2023-03-01T10:27:22;5.60;71.60
33655;DHT22;19997;51.274;22.506;2023-03-01T10:30:02;5.70;71.50
33655;DHT22;19997;51.274;22.506;2023-03-01T10:32:34;5.70;70.80
33655;DHT22;19997;51.274;22.506;2023-03-01T10:35:01;5.80;69.90
33655;DHT22;19997;51.274;22.506;2023-03-01T10:37:28;5.80;70.00
33655;DHT22;19997;51.274;22.506;2023-03-01T10:39:57;5.80;70.20
33655;DHT22;19997;51.274;22.506;2023-03-01T10:42:29;5.90;70.20
33655;DHT22;19997;51.274;22.506;2023-03-01T10:44:58;6.00;70.40
33655;DHT22;19997;51.274;22.506;2023-03-01T10:47:38;6.00;69.10
33655;DHT22;19997;51.274;22.506;2023-03-01T10:50:09;6.10;68.20
33655;DHT22;19997;51.274;22.506;2023-03-01T10:52:56;6.10;68.30
33655;DHT22;19997;51.274;22.506;2023-03-01T10:55:28;6.10;68.50
33655;DHT22;19997;51.274;22.506;2023-03-01T10:58:11;6.10;68.10
33655;DHT22;19997;51.274;22.506;2023-03-01T11:00:48;6.20;67.70
33655;DHT22;19997;51.274;22.506;2023-03-01T11:06:04;6.20;66.60
33655;DHT22;19997;51.274;22.506;2023-03-01T11:08:41;6.20;65.90
33655;DHT22;19997;51.274;22.506;2023-03-01T11:11:24;6.10;65.70
33655;DHT22;19997;51.274;22.506;2023-03-01T11:13:55;6.20;66.30
33655;DHT22;19997;51.274;22.506;2023-03-01T11:16:31;6.20;66.60
33655;DHT22;19997;51.274;22.506;2023-03-01T11:19:04;6.30;66.80
33655;DHT22;19997;51.274;22.506;2023-03-01T11:21:44;6.40;66.40
33655;DHT22;19997;51.274;22.506;2023-03-01T11:24:14;6.40;66.40
33655;DHT22;19997;51.274;22.506;2023-03-01T11:26:45;6.50;66.80
33655;DHT22;19997;51.274;22.506;2023-03-01T11:29:17;6.50;66.50
33655;DHT22;19997;51.274;22.506;2023-03-01T11:31:48;6.50;66.20
33655;DHT22;19997;51.274;22.506;2023-03-01T11:34:23;6.40;66.20
33655;DHT22;19997;51.274;22.506;2023-03-01T11:36:58;6.50;66.50
33655;DHT22;19997;51.274;22.506;2023-03-01T11:39:28;6.50;66.90
33655;DHT22;19997;51.274;22.506;2023-03-01T11:42:04;6.60;67.00
33655;DHT22;19997;51.274;22.506;2023-03-01T11:44:34;6.70;66.80
33655;DHT22;19997;51.274;22.506;2023-03-01T11:50:18;6.90;66.60
33655;DHT22;19997;51.274;22.506;2023-03-01T11:52:56;7.10;66.20
33655;DHT22;19997;51.274;22.506;2023-03-01T11:55:45;7.10;65.30
33655;DHT22;19997;51.274;22.506;2023-03-01T11:58:41;7.20;65.30
33655;DHT22;19997;51.274;22.506;2023-03-01T12:01:18;7.20;65.60
33655;DHT22;19997;51.274;22.506;2023-03-01T12:04:00;7.30;65.20
33655;DHT22;19997;51.274;22.506;2023-03-01T12:06:52;7.40;65.20
33655;DHT22;19997;51.274;22.506;2023-03-01T12:09:31;7.50;65.40
33655;DHT22;19997;51.274;22.506;2023-03-01T12:12:16;7.60;65.10
33655;DHT22;19997;51.274;22.506;2023-03-01T12:17:45;7.50;64.70
33655;DHT22;19997;51.274;22.506;2023-03-01T12:20:21;7.40;64.60
33655;DHT22;19997;51.274;22.506;2023-03-01T12:23:14;7.40;64.40
33655;DHT22;19997;51.274;22.506;2023-03-01T12:26:02;7.30;64.80
33655;DHT22;19997;51.274;22.506;2023-03-01T12:28:44;7.30;64.70
33655;DHT22;19997;51.274;22.506;2023-03-01T12:31:37;7.30;64.90
33655;DHT22;19997;51.274;22.506;2023-03-01T12:34:16;7.40;65.10
33655;DHT22;19997;51.274;22.506;2023-03-01T12:37:13;7.60;65.00
33655;DHT22;19997;51.274;22.506;2023-03-01T12:39:53;7.70;64.50
33655;DHT22;19997;51.274;22.506;2023-03-01T12:42:27;7.90;64.20
33655;DHT22;19997;51.274;22.506;2023-03-01T12:45:21;8.00;64.00
33655;DHT22;19997;51.274;22.506;2023-03-01T12:48:02;8.20;63.70
33655;DHT22;19997;51.274;22.506;2023-03-01T12:50:38;8.20;62.60
33655;DHT22;19997;51.274;22.506;2023-03-01T12:53:14;8.20;62.40
33655;DHT22;19997;51.274;22.506;2023-03-01T12:56:05;8.20;62.20
33655;DHT22;19997;51.274;22.506;2023-03-01T12:58:36;8.30;62.60
33655;DHT22;19997;51.274;22.506;2023-03-01T13:01:15;8.50;62.70
33655;DHT22;19997;51.274;22.506;2023-03-01T13:04:07;8.60;62.30
33655;DHT22;19997;51.274;22.506;2023-03-01T13:06:43;8.70;61.90
33655;DHT22;19997;51.274;22.506;2023-03-01T13:09:19;8.80;61.40
33655;DHT22;19997;51.274;22.506;2023-03-01T13:11:51;8.80;60.90
33655;DHT22;19997;51.274;22.506;2023-03-01T13:14:45;8.80;60.70
33655;DHT22;19997;51.274;22.506;2023-03-01T13:17:40;8.70;61.00
33655;DHT22;19997;51.274;22.506;2023-03-01T13:20:17;8.70;61.70
33655;DHT22;19997;51.274;22.506;2023-03-01T13:22:45;8.80;61.80
33655;DHT22;19997;51.274;22.506;2023-03-01T13:25:16;8.90;61.50
33655;DHT22;19997;51.274;22.506;2023-03-01T13:27:45;8.90;61.30
33655;DHT22;19997;51.274;22.506;2023-03-01T13:30:41;8.90;61.00
33655;DHT22;19997;51.274;22.506;2023-03-01T13:33:33;8.90;61.00
33655;DHT22;19997;51.274;22.506;2023-03-01T13:36:07;8.70;60.90
33655;DHT22;19997;51.274;22.506;2023-03-01T13:38:38;8.70;61.20
33655;DHT22;19997;51.274;22.506;2023-03-01T13:41:07;8.70;61.70
33655;DHT22;19997;51.274;22.506;2023-03-01T13:43:36;8.70;61.80
33655;DHT22;19997;51.274;22.506;2023-03-01T13:46:14;8.70;61.80
33655;DHT22;19997;51.274;22.506;2023-03-01T13:48:44;8.70;61.50
33655;DHT22;19997;51.274;22.506;2023-03-01T13:51:12;8.70;61.20
33655;DHT22;19997;51.274;22.506;2023-03-01T13:53:42;8.60;61.40
33655;DHT22;19997;51.274;22.506;2023-03-01T13:56:11;8.60;61.60
33655;DHT22;19997;51.274;22.506;2023-03-01T13:58:50;8.60;61.90
33655;DHT22;19997;51.274;22.506;2023-03-01T14:01:27;8.80;61.90
33655;DHT22;19997;51.274;22.506;2023-03-01T14:03:54;8.90;61.90
33655;DHT22;19997;51.274;22.506;2023-03-01T14:06:23;9.00;61.80
33655;DHT22;19997;51.274;22.506;2023-03-01T14:09:00;9.10;61.50
33655;DHT22;19997;51.274;22.506;2023-03-01T14:11:56;9.20;61.40
33655;DHT22;19997;51.274;22.506;2023-03-01T14:14:39;9.30;61.00
33655;DHT22;19997;51.274;22.506;2023-03-01T14:20:16;9.50;60.70
33655;DHT22;19997;51.274;22.506;2023-03-01T14:22:44;9.60;60.90
33655;DHT22;19997;51.274;22.506;2023-03-01T14:25:22;9.60;61.20
33655;DHT22;19997;51.274;22.506;2023-03-01T14:27:59;9.70;60.90
33655;DHT22;19997;51.274;22.506;2023-03-01T14:30:32;9.60;60.70
33655;DHT22;19997;51.274;22.506;2023-03-01T14:33:01;9.50;60.90
33655;DHT22;19997;51.274;22.506;2023-03-01T14:35:31;9.40;61.00
33655;DHT22;19997;51.274;22.506;2023-03-01T14:37:59;9.40;61.20
33655;DHT22;19997;51.274;22.506;2023-03-01T14:40:28;9.30;61.20
33655;DHT22;19997;51.274;22.506;2023-03-01T14:42:58;9.20;61.40
33655;DHT22;19997;51.274;22.506;2023-03-01T14:45:29;9.10;61.60
33655;DHT22;19997;51.274;22.506;2023-03-01T14:47:59;9.00;61.90
33655;DHT22;19997;51.274;22.506;2023-03-01T14:50:29;8.90;62.20
33655;DHT22;19997;51.274;22.506;2023-03-01T14:52:58;8.80;62.50
33655;DHT22;19997;51.274;22.506;2023-03-01T14:55:29;8.70;62.80
33655;DHT22;19997;51.274;22.506;2023-03-01T14:57:57;8.50;63.20
33655;DHT22;19997;51.274;22.506;2023-03-01T15:00:29;8.40;63.40
33655;DHT22;19997;51.274;22.506;2023-03-01T15:03:01;8.30;63.70
33655;DHT22;19997;51.274;22.506;2023-03-01T15:05:31;8.20;64.10
33655;DHT22;19997;51.274;22.506;2023-03-01T15:07:59;8.10;64.50
33655;DHT22;19997;51.274;22.506;2023-03-01T15:10:29;7.90;64.70
33655;DHT22;19997;51.274;22.506;2023-03-01T15:13:13;7.90;65.10
33655;DHT22;19997;51.274;22.506;2023-03-01T15:15:44;7.80;65.40
33655;DHT22;19997;51.274;22.506;2023-03-01T15:18:17;7.80;65.50
33655;DHT22;19997;51.274;22.506;2023-03-01T15:20:46;7.80;65.60
33655;DHT22;19997;51.274;22.506;2023-03-01T15:23:21;7.70;66.50
33655;DHT22;19997;51.274;22.506;2023-03-01T15:25:50;7.60;66.10
33655;DHT22;19997;51.274;22.506;2023-03-01T15:28:25;7.50;66.30
33655;DHT22;19997;51.274;22.506;2023-03-01T15:30:56;7.30;66.70
33655;DHT22;19997;51.274;22.506;2023-03-01T15:33:35;7.20;67.10
33655;DHT22;19997;51.274;22.506;2023-03-01T15:36:30;7.10;67.30
33655;DHT22;19997;51.274;22.506;2023-03-01T15:38:59;7.00;67.40
33655;DHT22;19997;51.274;22.506;2023-03-01T15:41:28;6.90;67.60
33655;DHT22;19997;51.274;22.506;2023-03-01T15:43:59;6.80;67.70
33655;DHT22;19997;51.274;22.506;2023-03-01T15:46:30;6.70;67.80
33655;DHT22;19997;51.274;22.506;2023-03-01T15:49:02;6.60;67.90
33655;DHT22;19997;51.274;22.506;2023-03-01T15:51:33;6.50;68.00
33655;DHT22;19997;51.274;22.506;2023-03-01T15:54:03;6.40;68.20
33655;DHT22;19997;51.274;22.506;2023-03-01T15:56:32;6.40;68.30
33655;DHT22;19997;51.274;22.506;2023-03-01T15:59:01;6.30;68.40
33655;DHT22;19997;51.274;22.506;2023-03-01T16:01:32;6.20;69.40